sensor_id;sensor_type;location;lat;lon;timestamp;pressure;altitude;pressure_sealevel;temperature
33267;BMP180;19638;49.080;11.896;2022-12-28T00:01:56;97065.00;;;-0.40
33267;BMP180;19638;49.080;11.896;2022-12-28T00:06:03;97060.00;;;-0.40
33267;BMP180;19638;49.080;11.896;2022-12-28T00:10:09;97053.00;;;-0.50
33267;BMP180;19638;49.080;11.896;2022-12-28T00:14:12;97051.00;;;-0.50
33267;BMP180;19638;49.080;11.896;2022-12-28T00:18:15;97049.00;;;-0.40
33267;BMP180;19638;49.080;11.896;2022-12-28T00:22:20;97056.00;;;-0.20
33267;BMP180;19638;49.080;11.896;2022-12-28T00:26:25;97056.00;;;-0.20
33267;BMP180;19638;49.080;11.896;2022-12-28T00:30:30;97055.00;;;-0.20
33267;BMP180;19638;49.080;11.896;2022-12-28T00:35:04;97055.00;;;-0.30
33267;BMP180;19638;49.080;11.896;2022-12-28T00:39:11;97060.00;;;-0.30
33267;BMP180;19638;49.080;11.896;2022-12-28T00:43:48;97051.00;;;-0.30
33267;BMP180;19638;49.080;11.896;2022-12-28T00:47:51;97047.00;;;-0.30
33267;BMP180;19638;49.080;11.896;2022-12-28T00:52:25;97049.00;;;-0.30
33267;BMP180;19638;49.080;11.896;2022-12-28T00:56:30;97057.00;;;-0.30
33267;BMP180;19638;49.080;11.896;2022-12-28T01:01:04;97042.00;;;-0.30
33267;BMP180;19638;49.080;11.896;2022-12-28T01:09:44;97027.00;;;-0.10
33267;BMP180;19638;49.080;11.896;2022-12-28T01:13:50;97026.00;;;0.00
33267;BMP180;19638;49.080;11.896;2022-12-28T01:17:54;97029.00;;;0.10
33267;BMP180;19638;49.080;11.896;2022-12-28T01:22:34;97022.00;;;0.10
33267;BMP180;19638;49.080;11.896;2022-12-28T01:26:44;97023.00;;;0.20
33267;BMP180;19638;49.080;11.896;2022-12-28T01:31:22;97036.00;;;0.30
33267;BMP180;19638;49.080;11.896;2022-12-28T01:35:27;97024.00;;;0.40
33267;BMP180;19638;49.080;11.896;2022-12-28T01:44:40;97015.00;;;0.30
33267;BMP180;19638;49.080;11.896;2022-12-28T01:49:12;97008.00;;;0.30
33267;BMP180;19638;49.080;11.896;2022-12-28T01:53:17;97011.00;;;0.30
33267;BMP180;19638;49.080;11.896;2022-12-28T01:57:24;97001.00;;;0.20
33267;BMP180;19638;49.080;11.896;2022-12-28T02:02:05;96988.00;;;0.10
33267;BMP180;19638;49.080;11.896;2022-12-28T02:06:13;96975.00;;;0.10
33267;BMP180;19638;49.080;11.896;2022-12-28T02:15:00;96942.00;;;-0.20
33267;BMP180;19638;49.080;11.896;2022-12-28T02:23:59;96923.00;;;-0.30
33267;BMP180;19638;49.080;11.896;2022-12-28T02:28:41;96929.00;;;-0.40
33267;BMP180;19638;49.080;11.896;2022-12-28T02:32:53;96924.00;;;-0.50
33267;BMP180;19638;49.080;11.896;2022-12-28T02:37:21;96910.00;;;-0.40
33267;BMP180;19638;49.080;11.896;2022-12-28T02:41:28;96917.00;;;-0.40
33267;BMP180;19638;49.080;11.896;2022-12-28T02:45:36;96914.00;;;-0.30
33267;BMP180;19638;49.080;11.896;2022-12-28T02:49:58;96918.00;;;-0.40
33267;BMP180;19638;49.080;11.896;2022-12-28T02:59:34;96908.00;;;-0.30
33267;BMP180;19638;49.080;11.896;2022-12-28T03:03:54;96909.00;;;-0.20
33267;BMP180;19638;49.080;11.896;2022-12-28T03:08:08;96902.00;;;-0.10
33267;BMP180;19638;49.080;11.896;2022-12-28T03:12:28;96903.00;;;0.00
33267;BMP180;19638;49.080;11.896;2022-12-28T03:16:35;96890.00;;;0.00
33267;BMP180;19638;49.080;11.896;2022-12-28T03:21:07;96892.00;;;0.10
33267;BMP180;19638;49.080;11.896;2022-12-28T03:25:33;96880.00;;;0.10
33267;BMP180;19638;49.080;11.896;2022-12-28T03:29:58;96861.00;;;0.10
33267;BMP180;19638;49.080;11.896;2022-12-28T03:34:20;96845.00;;;0.10
33267;BMP180;19638;49.080;11.896;2022-12-28T03:38:32;96847.00;;;0.20
33267;BMP180;19638;49.080;11.896;2022-12-28T03:42:43;96835.00;;;0.20
33267;BMP180;19638;49.080;11.896;2022-12-28T03:47:07;96838.00;;;0.30
33267;BMP180;19638;49.080;11.896;2022-12-28T03:51:15;96845.00;;;0.40
33267;BMP180;19638;49.080;11.896;2022-12-28T03:55:23;96838.00;;;0.40
33267;BMP180;19638;49.080;11.896;2022-12-28T03:59:30;96826.00;;;0.40
33267;BMP180;19638;49.080;11.896;2022-12-28T04:03:33;96827.00;;;0.40
33267;BMP180;19638;49.080;11.896;2022-12-28T04:07:37;96830.00;;;0.40
33267;BMP180;19638;49.080;11.896;2022-12-28T04:11:44;96824.00;;;0.40
33267;BMP180;19638;49.080;11.896;2022-12-28T04:15:58;96812.00;;;0.40
33267;BMP180;19638;49.080;11.896;2022-12-28T04:20:05;96814.00;;;0.30
33267;BMP180;19638;49.080;11.896;2022-12-28T04:24:14;96815.00;;;0.30
33267;BMP180;19638;49.080;11.896;2022-12-28T04:28:19;96811.00;;;0.30
33267;BMP180;19638;49.080;11.896;2022-12-28T04:32:25;96808.00;;;0.20
33267;BMP180;19638;49.080;11.896;2022-12-28T04:36:28;96814.00;;;0.30
33267;BMP180;19638;49.080;11.896;2022-12-28T04:40:31;96816.00;;;0.30
33267;BMP180;19638;49.080;11.896;2022-12-28T04:44:36;96809.00;;;0.20
33267;BMP180;19638;49.080;11.896;2022-12-28T04:48:40;96812.00;;;0.10
33267;BMP180;19638;49.080;11.896;2022-12-28T04:52:46;96818.00;;;0.00
33267;BMP180;19638;49.080;11.896;2022-12-28T04:56:50;96816.00;;;0.00
33267;BMP180;19638;49.080;11.896;2022-12-28T05:01:01;96813.00;;;0.10
33267;BMP180;19638;49.080;11.896;2022-12-28T05:05:05;96791.00;;;0.10
33267;BMP180;19638;49.080;11.896;2022-12-28T05:09:08;96801.00;;;0.20
33267;BMP180;19638;49.080;11.896;2022-12-28T05:13:17;96807.00;;;0.20
33267;BMP180;19638;49.080;11.896;2022-12-28T05:17:21;96794.00;;;0.30
33267;BMP180;19638;49.080;11.896;2022-12-28T05:21:28;96795.00;;;0.30
33267;BMP180;19638;49.080;11.896;2022-12-28T05:25:31;96793.00;;;0.30
33267;BMP180;19638;49.080;11.896;2022-12-28T05:29:34;96795.00;;;0.40
33267;BMP180;19638;49.080;11.896;2022-12-28T05:33:39;96787.00;;;0.40
33267;BMP180;19638;49.080;11.896;2022-12-28T05:37:44;96779.00;;;0.50
33267;BMP180;19638;49.080;11.896;2022-12-28T05:41:50;96786.00;;;0.70
33267;BMP180;19638;49.080;11.896;2022-12-28T05:45:53;96788.00;;;0.80
33267;BMP180;19638;49.080;11.896;2022-12-28T05:49:58;96786.00;;;0.80
33267;BMP180;19638;49.080;11.896;2022-12-28T05:54:06;96787.00;;;0.90
33267;BMP180;19638;49.080;11.896;2022-12-28T05:58:17;96768.00;;;1.00
33267;BMP180;19638;49.080;11.896;2022-12-28T06:02:22;96757.00;;;1.20
33267;BMP180;19638;49.080;11.896;2022-12-28T06:06:31;96766.00;;;1.20
33267;BMP180;19638;49.080;11.896;2022-12-28T06:10:35;96778.00;;;1.20
33267;BMP180;19638;49.080;11.896;2022-12-28T06:14:43;96761.00;;;1.20
33267;BMP180;19638;49.080;11.896;2022-12-28T06:18:46;96755.00;;;1.20
33267;BMP180;19638;49.080;11.896;2022-12-28T06:22:51;96765.00;;;1.20
33267;BMP180;19638;49.080;11.896;2022-12-28T06:26:54;96756.00;;;1.30
33267;BMP180;19638;49.080;11.896;2022-12-28T06:31:02;96754.00;;;1.30
33267;BMP180;19638;49.080;11.896;2022-12-28T06:35:07;96758.00;;;1.30
33267;BMP180;19638;49.080;11.896;2022-12-28T06:39:16;96763.00;;;1.40
33267;BMP180;19638;49.080;11.896;2022-12-28T06:43:22;96764.00;;;1.50
33267;BMP180;19638;49.080;11.896;2022-12-28T06:47:25;96758.00;;;1.50
33267;BMP180;19638;49.080;11.896;2022-12-28T06:51:36;96753.00;;;1.60
33267;BMP180;19638;49.080;11.896;2022-12-28T06:55:51;96757.00;;;1.60
33267;BMP180;19638;49.080;11.896;2022-12-28T06:59:57;96756.00;;;1.70
33267;BMP180;19638;49.080;11.896;2022-12-28T07:04:01;96760.00;;;1.80
33267;BMP180;19638;49.080;11.896;2022-12-28T07:08:08;96758.00;;;1.80
33267;BMP180;19638;49.080;11.896;2022-12-28T07:12:16;96759.00;;;1.80
33267;BMP180;19638;49.080;11.896;2022-12-28T07:16:25;96753.00;;;1.80
33267;BMP180;19638;49.080;11.896;2022-12-28T07:20:28;96756.00;;;1.80
33267;BMP180;19638;49.080;11.896;2022-12-28T07:24:43;96758.00;;;1.80
33267;BMP180;19638;49.080;11.896;2022-12-28T07:28:48;96746.00;;;1.80
33267;BMP180;19638;49.080;11.896;2022-12-28T07:32:52;96747.00;;;1.80
33267;BMP180;19638;49.080;11.896;2022-12-28T07:36:55;96748.00;;;1.80
33267;BMP180;19638;49.080;11.896;2022-12-28T07:41:05;96733.00;;;1.80
33267;BMP180;19638;49.080;11.896;2022-12-28T07:45:14;96733.00;;;1.80
33267;BMP180;19638;49.080;11.896;2022-12-28T07:49:19;96732.00;;;1.80
33267;BMP180;19638;49.080;11.896;2022-12-28T08:08:00;96721.00;;;2.00
33267;BMP180;19638;49.080;11.896;2022-12-28T08:12:05;96724.00;;;2.20
33267;BMP180;19638;49.080;11.896;2022-12-28T08:16:41;96718.00;;;2.40
33267;BMP180;19638;49.080;11.896;2022-12-28T08:21:17;96708.00;;;2.50
33267;BMP180;19638;49.080;11.896;2022-12-28T08:25:22;96708.00;;;2.60
33267;BMP180;19638;49.080;11.896;2022-12-28T08:29:25;96702.00;;;2.70
33267;BMP180;19638;49.080;11.896;2022-12-28T08:34:11;96711.00;;;2.80
33267;BMP180;19638;49.080;11.896;2022-12-28T08:38:40;96727.00;;;2.80
33267;BMP180;19638;49.080;11.896;2022-12-28T08:42:44;96723.00;;;2.90
33267;BMP180;19638;49.080;11.896;2022-12-28T08:51:58;96714.00;;;3.10
33267;BMP180;19638;49.080;11.896;2022-12-28T08:56:35;96710.00;;;3.30
33267;BMP180;19638;49.080;11.896;2022-12-28T09:01:11;96706.00;;;3.60
33267;BMP180;19638;49.080;11.896;2022-12-28T09:05:46;96703.00;;;3.80
33267;BMP180;19638;49.080;11.896;2022-12-28T09:09:57;96704.00;;;4.00
33267;BMP180;19638;49.080;11.896;2022-12-28T09:14:31;96704.00;;;4.10
33267;BMP180;19638;49.080;11.896;2022-12-28T09:23:45;96685.00;;;4.20
33267;BMP180;19638;49.080;11.896;2022-12-28T09:27:50;96690.00;;;4.30
33267;BMP180;19638;49.080;11.896;2022-12-28T09:32:00;96695.00;;;4.40
33267;BMP180;19638;49.080;11.896;2022-12-28T09:36:37;96706.00;;;4.30
33267;BMP180;19638;49.080;11.896;2022-12-28T09:40:42;96706.00;;;4.40
33267;BMP180;19638;49.080;11.896;2022-12-28T09:44:53;96703.00;;;4.30
33267;BMP180;19638;49.080;11.896;2022-12-28T09:49:23;96687.00;;;4.20
33267;BMP180;19638;49.080;11.896;2022-12-28T09:53:32;96688.00;;;4.20
33267;BMP180;19638;49.080;11.896;2022-12-28T09:58:12;96679.00;;;4.20
33267;BMP180;19638;49.080;11.896;2022-12-28T10:02:22;96676.00;;;4.20
33267;BMP180;19638;49.080;11.896;2022-12-28T10:06:32;96672.00;;;4.20
33267;BMP180;19638;49.080;11.896;2022-12-28T10:11:08;96666.00;;;4.20
33267;BMP180;19638;49.080;11.896;2022-12-28T10:15:46;96665.00;;;4.20
33267;BMP180;19638;49.080;11.896;2022-12-28T10:19:51;96661.00;;;4.20
33267;BMP180;19638;49.080;11.896;2022-12-28T10:24:26;96651.00;;;4.20
33267;BMP180;19638;49.080;11.896;2022-12-28T10:29:01;96646.00;;;4.20
33267;BMP180;19638;49.080;11.896;2022-12-28T10:33:10;96639.00;;;4.20
33267;BMP180;19638;49.080;11.896;2022-12-28T10:37:42;96645.00;;;4.30
33267;BMP180;19638;49.080;11.896;2022-12-28T10:42:20;96634.00;;;4.30
33267;BMP180;19638;49.080;11.896;2022-12-28T10:46:53;96632.00;;;4.40
33267;BMP180;19638;49.080;11.896;2022-12-28T10:51:00;96625.00;;;4.50
33267;BMP180;19638;49.080;11.896;2022-12-28T10:55:35;96622.00;;;4.60
33267;BMP180;19638;49.080;11.896;2022-12-28T11:04:17;96611.00;;;5.00
33267;BMP180;19638;49.080;11.896;2022-12-28T11:08:22;96607.00;;;5.20
33267;BMP180;19638;49.080;11.896;2022-12-28T11:17:33;96592.00;;;5.90
33267;BMP180;19638;49.080;11.896;2022-12-28T11:22:10;96587.00;;;6.20
33267;BMP180;19638;49.080;11.896;2022-12-28T11:31:25;96586.00;;;6.60
33267;BMP180;19638;49.080;11.896;2022-12-28T11:35:59;96568.00;;;6.70
33267;BMP180;19638;49.080;11.896;2022-12-28T11:40:44;96570.00;;;6.70
33267;BMP180;19638;49.080;11.896;2022-12-28T11:54:58;96562.00;;;7.20
33267;BMP180;19638;49.080;11.896;2022-12-28T12:04:16;96548.00;;;7.10
33267;BMP180;19638;49.080;11.896;2022-12-28T12:13:57;96535.00;;;7.50
33267;BMP180;19638;49.080;11.896;2022-12-28T12:18:32;96536.00;;;7.60
33267;BMP180;19638;49.080;11.896;2022-12-28T12:23:11;96516.00;;;7.60
33267;BMP180;19638;49.080;11.896;2022-12-28T12:27:45;96515.00;;;7.70
33267;BMP180;19638;49.080;11.896;2022-12-28T12:31:59;96505.00;;;7.80
33267;BMP180;19638;49.080;11.896;2022-12-28T12:36:32;96505.00;;;7.90
33267;BMP180;19638;49.080;11.896;2022-12-28T12:41:04;96494.00;;;8.00
33267;BMP180;19638;49.080;11.896;2022-12-28T12:45:38;96491.00;;;8.00
33267;BMP180;19638;49.080;11.896;2022-12-28T12:54:34;96475.00;;;8.20
33267;BMP180;19638;49.080;11.896;2022-12-28T12:59:08;96478.00;;;8.30
33267;BMP180;19638;49.080;11.896;2022-12-28T13:03:28;96474.00;;;8.50
33267;BMP180;19638;49.080;11.896;2022-12-28T13:12:39;96459.00;;;8.80
33267;BMP180;19638;49.080;11.896;2022-12-28T13:17:12;96455.00;;;8.90
33267;BMP180;19638;49.080;11.896;2022-12-28T13:21:19;96457.00;;;9.00
33267;BMP180;19638;49.080;11.896;2022-12-28T13:25:27;96449.00;;;9.20
33267;BMP180;19638;49.080;11.896;2022-12-28T13:29:36;96445.00;;;9.30
33267;BMP180;19638;49.080;11.896;2022-12-28T13:33:40;96441.00;;;9.40
33267;BMP180;19638;49.080;11.896;2022-12-28T13:38:17;96450.00;;;9.40
33267;BMP180;19638;49.080;11.896;2022-12-28T13:42:27;96449.00;;;9.30
33267;BMP180;19638;49.080;11.896;2022-12-28T13:47:01;96442.00;;;9.30
33267;BMP180;19638;49.080;11.896;2022-12-28T13:51:09;96439.00;;;9.30
33267;BMP180;19638;49.080;11.896;2022-12-28T13:55:16;96437.00;;;9.20
33267;BMP180;19638;49.080;11.896;2022-12-28T13:59:56;96429.00;;;9.10
33267;BMP180;19638;49.080;11.896;2022-12-28T14:04:04;96424.00;;;9.10
33267;BMP180;19638;49.080;11.896;2022-12-28T14:08:28;96409.00;;;9.00
33267;BMP180;19638;49.080;11.896;2022-12-28T14:13:02;96416.00;;;8.90
33267;BMP180;19638;49.080;11.896;2022-12-28T14:17:07;96413.00;;;8.80
33267;BMP180;19638;49.080;11.896;2022-12-28T14:21:14;96412.00;;;8.80
33267;BMP180;19638;49.080;11.896;2022-12-28T14:25:19;96412.00;;;8.70
33267;BMP180;19638;49.080;11.896;2022-12-28T14:29:28;96407.00;;;8.60
33267;BMP180;19638;49.080;11.896;2022-12-28T14:34:03;96410.00;;;8.50
33267;BMP180;19638;49.080;11.896;2022-12-28T14:38:16;96411.00;;;8.30
33267;BMP180;19638;49.080;11.896;2022-12-28T14:42:24;96414.00;;;8.20
33267;BMP180;19638;49.080;11.896;2022-12-28T14:46:31;96414.00;;;8.20
33267;BMP180;19638;49.080;11.896;2022-12-28T14:51:05;96415.00;;;8.20
33267;BMP180;19638;49.080;11.896;2022-12-28T14:55:35;96417.00;;;8.10
33267;BMP180;19638;49.080;11.896;2022-12-28T14:59:45;96419.00;;;8.10
33267;BMP180;19638;49.080;11.896;2022-12-28T15:04:24;96418.00;;;8.10
33267;BMP180;19638;49.080;11.896;2022-12-28T15:08:30;96413.00;;;8.10
33267;BMP180;19638;49.080;11.896;2022-12-28T15:12:36;96408.00;;;8.00
33267;BMP180;19638;49.080;11.896;2022-12-28T15:16:41;96411.00;;;7.90
33267;BMP180;19638;49.080;11.896;2022-12-28T15:20:44;96415.00;;;7.80
33267;BMP180;19638;49.080;11.896;2022-12-28T15:24:48;96409.00;;;7.70
33267;BMP180;19638;49.080;11.896;2022-12-28T15:29:25;96401.00;;;7.50
33267;BMP180;19638;49.080;11.896;2022-12-28T15:33:51;96404.00;;;7.40
33267;BMP180;19638;49.080;11.896;2022-12-28T15:37:58;96400.00;;;7.20
33267;BMP180;19638;49.080;11.896;2022-12-28T15:42:03;96404.00;;;7.00
33267;BMP180;19638;49.080;11.896;2022-12-28T15:46:45;96403.00;;;6.70
33267;BMP180;19638;49.080;11.896;2022-12-28T15:50:53;96399.00;;;6.50
33267;BMP180;19638;49.080;11.896;2022-12-28T15:54:57;96397.00;;;6.30
33267;BMP180;19638;49.080;11.896;2022-12-28T15:59:02;96394.00;;;6.20
33267;BMP180;19638;49.080;11.896;2022-12-28T16:03:06;96386.00;;;6.10
33267;BMP180;19638;49.080;11.896;2022-12-28T16:07:09;96383.00;;;5.90
33267;BMP180;19638;49.080;11.896;2022-12-28T16:11:14;96389.00;;;5.80
33267;BMP180;19638;49.080;11.896;2022-12-28T16:15:52;96381.00;;;5.60
33267;BMP180;19638;49.080;11.896;2022-12-28T16:19:58;96384.00;;;5.50
33267;BMP180;19638;49.080;11.896;2022-12-28T16:24:01;96386.00;;;5.50
33267;BMP180;19638;49.080;11.896;2022-12-28T16:28:35;96369.00;;;5.50
33267;BMP180;19638;49.080;11.896;2022-12-28T16:32:40;96371.00;;;5.50
33267;BMP180;19638;49.080;11.896;2022-12-28T16:36:45;96374.00;;;5.50
33267;BMP180;19638;49.080;11.896;2022-12-28T16:40:49;96364.00;;;5.50
33267;BMP180;19638;49.080;11.896;2022-12-28T16:44:53;96363.00;;;5.50
33267;BMP180;19638;49.080;11.896;2022-12-28T16:49:00;96344.00;;;5.40
33267;BMP180;19638;49.080;11.896;2022-12-28T16:53:05;96338.00;;;5.30
33267;BMP180;19638;49.080;11.896;2022-12-28T16:57:39;96336.00;;;5.30
33267;BMP180;19638;49.080;11.896;2022-12-28T17:02:16;96336.00;;;5.10
33267;BMP180;19638;49.080;11.896;2022-12-28T17:06:20;96337.00;;;5.10
33267;BMP180;19638;49.080;11.896;2022-12-28T17:10:34;96333.00;;;5.10
33267;BMP180;19638;49.080;11.896;2022-12-28T17:14:37;96322.00;;;5.10
33267;BMP180;19638;49.080;11.896;2022-12-28T17:19:14;96334.00;;;5.10
33267;BMP180;19638;49.080;11.896;2022-12-28T17:23:17;96324.00;;;5.10
33267;BMP180;19638;49.080;11.896;2022-12-28T17:27:22;96321.00;;;5.10
33267;BMP180;19638;49.080;11.896;2022-12-28T17:31:56;96316.00;;;5.10
33267;BMP180;19638;49.080;11.896;2022-12-28T17:35:59;96321.00;;;5.10
33267;BMP180;19638;49.080;11.896;2022-12-28T17:40:05;96319.00;;;5.00
33267;BMP180;19638;49.080;11.896;2022-12-28T17:44:40;96325.00;;;4.90
33267;BMP180;19638;49.080;11.896;2022-12-28T17:49:14;96310.00;;;4.70
33267;BMP180;19638;49.080;11.896;2022-12-28T17:53:18;96312.00;;;4.60
33267;BMP180;19638;49.080;11.896;2022-12-28T17:57:53;96322.00;;;4.50
33267;BMP180;19638;49.080;11.896;2022-12-28T18:01:59;96314.00;;;4.30
33267;BMP180;19638;49.080;11.896;2022-12-28T18:06:33;96306.00;;;4.20
33267;BMP180;19638;49.080;11.896;2022-12-28T18:11:10;96311.00;;;4.00
33267;BMP180;19638;49.080;11.896;2022-12-28T18:15:18;96301.00;;;3.80
33267;BMP180;19638;49.080;11.896;2022-12-28T18:19:22;96294.00;;;3.60
33267;BMP180;19638;49.080;11.896;2022-12-28T18:23:26;96293.00;;;3.50
33267;BMP180;19638;49.080;11.896;2022-12-28T18:32:38;96286.00;;;3.40
33267;BMP180;19638;49.080;11.896;2022-12-28T18:37:17;96278.00;;;3.50
33267;BMP180;19638;49.080;11.896;2022-12-28T18:46:30;96275.00;;;3.60
33267;BMP180;19638;49.080;11.896;2022-12-28T18:51:06;96276.00;;;3.60
33267;BMP180;19638;49.080;11.896;2022-12-28T18:55:42;96280.00;;;3.60
33267;BMP180;19638;49.080;11.896;2022-12-28T19:00:20;96281.00;;;3.60
33267;BMP180;19638;49.080;11.896;2022-12-28T19:04:57;96270.00;;;3.60
33267;BMP180;19638;49.080;11.896;2022-12-28T19:09:37;96276.00;;;3.50
33267;BMP180;19638;49.080;11.896;2022-12-28T19:19:36;96260.00;;;3.40
33267;BMP180;19638;49.080;11.896;2022-12-28T19:24:11;96254.00;;;3.30
33267;BMP180;19638;49.080;11.896;2022-12-28T19:28:46;96254.00;;;3.20
33267;BMP180;19638;49.080;11.896;2022-12-28T19:38:00;96243.00;;;2.90
33267;BMP180;19638;49.080;11.896;2022-12-28T19:42:35;96234.00;;;2.90
33267;BMP180;19638;49.080;11.896;2022-12-28T19:46:38;96232.00;;;3.00
33267;BMP180;19638;49.080;11.896;2022-12-28T19:50:46;96227.00;;;3.00
33267;BMP180;19638;49.080;11.896;2022-12-28T19:55:21;96211.00;;;3.00
33267;BMP180;19638;49.080;11.896;2022-12-28T19:59:55;96211.00;;;3.00
33267;BMP180;19638;49.080;11.896;2022-12-28T20:04:31;96203.00;;;2.90
33267;BMP180;19638;49.080;11.896;2022-12-28T20:13:47;96190.00;;;3.10
33267;BMP180;19638;49.080;11.896;2022-12-28T20:18:18;96194.00;;;3.10
33267;BMP180;19638;49.080;11.896;2022-12-28T20:22:24;96188.00;;;3.20
33267;BMP180;19638;49.080;11.896;2022-12-28T20:26:55;96183.00;;;3.20
33267;BMP180;19638;49.080;11.896;2022-12-28T20:31:35;96188.00;;;3.10
33267;BMP180;19638;49.080;11.896;2022-12-28T20:36:15;96176.00;;;3.20
33267;BMP180;19638;49.080;11.896;2022-12-28T20:40:46;96164.00;;;3.10
33267;BMP180;19638;49.080;11.896;2022-12-28T20:45:23;96175.00;;;3.10
33267;BMP180;19638;49.080;11.896;2022-12-28T20:50:03;96172.00;;;3.10
33267;BMP180;19638;49.080;11.896;2022-12-28T20:54:37;96158.00;;;3.20
33267;BMP180;19638;49.080;11.896;2022-12-28T20:58:46;96148.00;;;3.30
33267;BMP180;19638;49.080;11.896;2022-12-28T21:03:23;96151.00;;;3.40
33267;BMP180;19638;49.080;11.896;2022-12-28T21:08:00;96151.00;;;3.40
33267;BMP180;19638;49.080;11.896;2022-12-28T21:12:04;96144.00;;;3.40
33267;BMP180;19638;49.080;11.896;2022-12-28T21:21:12;96124.00;;;3.20
33267;BMP180;19638;49.080;11.896;2022-12-28T21:25:42;96128.00;;;3.10
33267;BMP180;19638;49.080;11.896;2022-12-28T21:30:16;96123.00;;;3.00
33267;BMP180;19638;49.080;11.896;2022-12-28T21:34:52;96126.00;;;2.80
33267;BMP180;19638;49.080;11.896;2022-12-28T21:39:29;96130.00;;;2.70
33267;BMP180;19638;49.080;11.896;2022-12-28T21:43:35;96135.00;;;2.70
33267;BMP180;19638;49.080;11.896;2022-12-28T21:48:12;96126.00;;;2.50
33267;BMP180;19638;49.080;11.896;2022-12-28T21:52:18;96128.00;;;2.50
33267;BMP180;19638;49.080;11.896;2022-12-28T21:56:22;96119.00;;;2.50
33267;BMP180;19638;49.080;11.896;2022-12-28T22:01:00;96120.00;;;2.50
33267;BMP180;19638;49.080;11.896;2022-12-28T22:05:21;96125.00;;;2.60
33267;BMP180;19638;49.080;11.896;2022-12-28T22:09:45;96121.00;;;2.60
33267;BMP180;19638;49.080;11.896;2022-12-28T22:14:08;96110.00;;;2.70
33267;BMP180;19638;49.080;11.896;2022-12-28T22:18:28;96106.00;;;2.70
33267;BMP180;19638;49.080;11.896;2022-12-28T22:22:54;96100.00;;;2.70
33267;BMP180;19638;49.080;11.896;2022-12-28T22:26:59;96100.00;;;2.70
33267;BMP180;19638;49.080;11.896;2022-12-28T22:31:05;96091.00;;;2.70
33267;BMP180;19638;49.080;11.896;2022-12-28T22:35:12;96086.00;;;2.80
33267;BMP180;19638;49.080;11.896;2022-12-28T22:39:43;96087.00;;;2.80
33267;BMP180;19638;49.080;11.896;2022-12-28T22:43:50;96085.00;;;2.80
33267;BMP180;19638;49.080;11.896;2022-12-28T22:47:57;96089.00;;;2.80
33267;BMP180;19638;49.080;11.896;2022-12-28T22:52:36;96082.00;;;2.80
33267;BMP180;19638;49.080;11.896;2022-12-28T22:56:40;96076.00;;;2.80
33267;BMP180;19638;49.080;11.896;2022-12-28T23:01:17;96086.00;;;2.80
33267;BMP180;19638;49.080;11.896;2022-12-28T23:05:25;96080.00;;;2.70
33267;BMP180;19638;49.080;11.896;2022-12-28T23:10:04;96078.00;;;2.70
33267;BMP180;19638;49.080;11.896;2022-12-28T23:14:10;96068.00;;;2.80
33267;BMP180;19638;49.080;11.896;2022-12-28T23:18:33;96070.00;;;2.80
33267;BMP180;19638;49.080;11.896;2022-12-28T23:22:54;96072.00;;;2.80
33267;BMP180;19638;49.080;11.896;2022-12-28T23:27:34;96061.00;;;2.80
33267;BMP180;19638;49.080;11.896;2022-12-28T23:31:37;96057.00;;;2.90
33267;BMP180;19638;49.080;11.896;2022-12-28T23:35:43;96052.00;;;3.00
33267;BMP180;19638;49.080;11.896;2022-12-28T23:39:46;96045.00;;;3.00
33267;BMP180;19638;49.080;11.896;2022-12-28T23:43:53;96048.00;;;3.10
33267;BMP180;19638;49.080;11.896;2022-12-28T23:47:59;96048.00;;;3.10
33267;BMP180;19638;49.080;11.896;2022-12-28T23:52:07;96043.00;;;3.20
33267;BMP180;19638;49.080;11.896;2022-12-28T23:56:10;96043.00;;;3.20
